createdAt,value
2016-12-09T00:00:05.511Z,75.62
2016-12-09T00:00:33.640Z,75.62
2016-12-09T00:01:01.508Z,75.33
2016-12-09T00:01:29.380Z,75.33
2016-12-09T00:01:57.317Z,75.43
2016-12-09T00:02:25.204Z,75.52
2016-12-09T00:02:53.337Z,75.33
2016-12-09T00:03:21.499Z,75.33
2016-12-09T00:03:49.328Z,75.37
2016-12-09T00:04:17.111Z,75.43
2016-12-09T00:04:45.247Z,75.37
2016-12-09T00:05:13.720Z,75.52
2016-12-09T00:05:41.555Z,75.52
2016-12-09T00:06:09.605Z,75.56
2016-12-09T00:06:38.113Z,75.17
2016-12-09T00:07:06.201Z,75.71
2016-12-09T00:07:34.000Z,75.52
2016-12-09T00:08:01.832Z,75.07
2016-12-09T00:08:29.613Z,75.43
2016-12-09T00:08:57.710Z,75.43
2016-12-09T00:09:25.502Z,76.33
2016-12-09T00:09:53.653Z,76.39
2016-12-09T00:10:21.437Z,76.49
2016-12-09T00:10:49.273Z,75.81
2016-12-09T00:11:17.673Z,75.91
2016-12-09T00:11:45.351Z,76.59
2016-12-09T00:12:13.203Z,76.78
2016-12-09T00:12:41.010Z,76.59
2016-12-09T00:13:09.184Z,76.68
2016-12-09T00:13:37.019Z,76.68
2016-12-09T00:14:05.258Z,76.39
2016-12-09T00:14:32.999Z,75.91
2016-12-09T00:15:01.415Z,76.1
2016-12-09T00:15:29.198Z,76.49
2016-12-09T00:15:57.488Z,76.78
2016-12-09T00:16:25.276Z,76.2
2016-12-09T00:16:53.709Z,76.01
2016-12-09T00:17:21.569Z,76.2
2016-12-09T00:17:49.729Z,76.29
2016-12-09T00:18:17.835Z,76.29
2016-12-09T00:18:45.908Z,76.39
2016-12-09T00:19:14.078Z,76.2
2016-12-09T00:19:41.922Z,75.91
2016-12-09T00:20:09.773Z,76.1
2016-12-09T00:20:38.255Z,76.1
2016-12-09T00:21:06.189Z,76.2
2016-12-09T00:21:34.154Z,76.39
2016-12-09T00:22:01.967Z,76.2
2016-12-09T00:22:29.787Z,76.2
2016-12-09T00:22:57.649Z,76.68
2016-12-09T00:23:25.450Z,76.87
2016-12-09T00:23:53.289Z,76.59
2016-12-09T00:24:21.046Z,76.78
2016-12-09T00:24:48.961Z,76.68
2016-12-09T00:25:16.758Z,77.07
2016-12-09T00:25:44.568Z,77.26
2016-12-09T00:26:12.378Z,76.78
2016-12-09T00:26:40.271Z,76.87
2016-12-09T00:27:08.103Z,76.78
2016-12-09T00:27:36.233Z,76.87
2016-12-09T00:28:04.030Z,76.59
2016-12-09T00:28:32.488Z,76.68
2016-12-09T00:29:00.313Z,76.68
2016-12-09T00:29:28.185Z,76.97
2016-12-09T00:29:56.359Z,76.59
2016-12-09T00:30:24.287Z,76.68
2016-12-09T00:31:07.085Z,76.29
2016-12-09T00:31:34.964Z,76.49
2016-12-09T00:32:03.066Z,76.59
2016-12-09T00:32:30.883Z,76.43
2016-12-09T00:32:59.004Z,76.78
2016-12-09T00:33:27.158Z,76.78
2016-12-09T00:33:54.949Z,76.49
2016-12-09T00:34:23.143Z,76.29
2016-12-09T00:34:50.953Z,76.2
2016-12-09T00:35:18.864Z,76.1
2016-12-09T00:35:46.754Z,76.2
2016-12-09T00:36:14.590Z,76.43
2016-12-09T00:36:42.803Z,76.39
2016-12-09T00:37:10.659Z,76.87
2016-12-09T00:37:38.424Z,77.26
2016-12-09T00:38:06.624Z,77.26
2016-12-09T00:38:34.496Z,76.78
2016-12-09T00:39:02.582Z,76.68
2016-12-09T00:39:30.763Z,76.59
2016-12-09T00:39:58.546Z,76.68
2016-12-09T00:40:26.640Z,76.59
2016-12-09T00:40:54.777Z,76.59
2016-12-09T00:41:22.573Z,76.68
2016-12-09T00:41:50.537Z,76.68
2016-12-09T00:42:18.277Z,76.49
2016-12-09T00:42:46.322Z,77.07
2016-12-09T00:43:14.115Z,77.36
2016-12-09T00:43:42.206Z,77.55
2016-12-09T00:44:09.974Z,77.07
2016-12-09T00:44:37.760Z,77.07
2016-12-09T00:45:05.600Z,76.78
2016-12-09T00:45:33.488Z,77.36
2016-12-09T00:46:01.759Z,77.26
2016-12-09T00:46:29.638Z,78.03
2016-12-09T00:46:57.438Z,77.17
2016-12-09T00:47:25.203Z,77.17
2016-12-09T00:47:53.019Z,77.26
2016-12-09T00:48:20.801Z,77.26
2016-12-09T00:48:48.559Z,77.36
2016-12-09T00:49:16.428Z,77.36
2016-12-09T00:49:44.313Z,77.26
2016-12-09T00:50:12.110Z,77.26
2016-12-09T00:50:39.911Z,77.17
2016-12-09T00:51:07.741Z,77.45
2016-12-09T00:51:35.508Z,77.55
2016-12-09T00:52:03.668Z,77.55
2016-12-09T00:52:31.787Z,77.55
2016-12-09T00:52:59.937Z,77.75
2016-12-09T00:53:27.779Z,77.55
2016-12-09T00:53:56.604Z,77.65
2016-12-09T00:54:24.785Z,77.26
2016-12-09T00:54:52.729Z,77.65
2016-12-09T00:55:20.598Z,77.84
2016-12-09T00:55:48.719Z,77.55
2016-12-09T00:56:17.063Z,77.55
2016-12-09T00:56:44.940Z,77.55
2016-12-09T00:57:12.716Z,77.36
2016-12-09T00:57:40.512Z,77.36
2016-12-09T00:58:08.404Z,77.65
2016-12-09T00:58:36.558Z,77.84
2016-12-09T00:59:04.640Z,77.55
2016-12-09T00:59:32.540Z,77.55
2016-12-09T01:00:00.366Z,77.36
2016-12-09T01:00:28.510Z,77.26
2016-12-09T01:00:56.659Z,77.36
2016-12-09T01:01:25.083Z,77.45
2016-12-09T01:01:53.101Z,77.55
2016-12-09T01:02:20.938Z,77.55
2016-12-09T01:02:49.136Z,77.17
2016-12-09T01:03:17.024Z,77.55
2016-12-09T01:03:44.823Z,77.75
2016-12-09T01:04:12.673Z,78.23
2016-12-09T01:04:40.444Z,78.42
2016-12-09T01:05:08.280Z,77.26
2016-12-09T01:05:36.072Z,78.13
2016-12-09T01:06:04.294Z,77.51
2016-12-09T01:06:32.252Z,78.29
2016-12-09T01:07:00.372Z,77.9
2016-12-09T01:07:28.200Z,78.29
2016-12-09T01:07:56.073Z,78.09
2016-12-09T01:08:24.476Z,77.32
2016-12-09T01:08:52.661Z,77.32
2016-12-09T01:09:20.822Z,77.51
2016-12-09T01:09:48.848Z,78.19
2016-12-09T01:10:16.629Z,77.61
2016-12-09T01:10:44.723Z,77.17
2016-12-09T01:11:13.116Z,77.26
2016-12-09T01:11:40.917Z,76.78
2016-12-09T01:12:08.701Z,77.45
2016-12-09T01:12:36.958Z,77.17
2016-12-09T01:13:04.742Z,77.55
2016-12-09T01:13:32.515Z,77.65
2016-12-09T01:14:00.385Z,77.51
2016-12-09T01:14:28.221Z,76.74
2016-12-09T01:14:56.462Z,76.97
2016-12-09T01:15:24.272Z,76.68
2016-12-09T01:15:52.115Z,77.17
2016-12-09T01:16:20.376Z,77.36
2016-12-09T01:16:48.157Z,77.26
2016-12-09T01:17:16.356Z,77.75
2016-12-09T01:17:44.134Z,77.65
2016-12-09T01:18:11.956Z,76.78
2016-12-09T01:18:40.161Z,77.17
2016-12-09T01:19:08.247Z,77.36
2016-12-09T01:19:36.689Z,77.45
2016-12-09T01:20:04.538Z,77.55
2016-12-09T01:20:32.420Z,76.97
2016-12-09T01:21:00.650Z,77.36
2016-12-09T01:21:28.763Z,77.45
2016-12-09T01:21:56.626Z,77.07
2016-12-09T01:22:24.743Z,76.87
2016-12-09T01:22:52.703Z,76.49
2016-12-09T01:23:20.543Z,76.78
2016-12-09T01:23:48.650Z,76.68
2016-12-09T01:24:16.558Z,77.26
2016-12-09T01:24:44.367Z,77.07
2016-12-09T01:25:12.449Z,77.55
2016-12-09T01:25:40.271Z,77.45
2016-12-09T01:26:08.413Z,77.45
2016-12-09T01:26:36.401Z,77.17
2016-12-09T01:27:04.230Z,76.78
2016-12-09T01:27:32.417Z,77.36
2016-12-09T01:28:00.804Z,77.94
2016-12-09T01:28:28.706Z,77.71
2016-12-09T01:28:57.206Z,78.03
2016-12-09T01:29:25.298Z,77.17
2016-12-09T01:29:53.164Z,77.65
2016-12-09T01:30:21.002Z,77.55
2016-12-09T01:30:48.785Z,77.55
2016-12-09T01:31:16.946Z,78.23
2016-12-09T01:31:45.388Z,78.48
2016-12-09T01:32:13.446Z,78.19
2016-12-09T01:32:41.555Z,77.32
2016-12-09T01:33:09.685Z,77.42
2016-12-09T01:33:37.559Z,77.13
2016-12-09T01:34:05.464Z,78.29
2016-12-09T01:34:33.231Z,78
2016-12-09T01:35:01.362Z,77.9
2016-12-09T01:35:29.190Z,78.09
2016-12-09T01:35:56.983Z,77.42
2016-12-09T01:36:25.023Z,77.42
2016-12-09T01:36:53.137Z,77.9
2016-12-09T01:37:20.924Z,77.71
2016-12-09T01:37:48.724Z,78.29
2016-12-09T01:38:16.527Z,78.48
2016-12-09T01:38:44.726Z,77.8
2016-12-09T01:39:12.593Z,78.38
2016-12-09T01:39:40.472Z,77.9
2016-12-09T01:40:08.633Z,78.58
2016-12-09T01:40:36.815Z,78.19
2016-12-09T01:41:04.699Z,78.29
2016-12-09T01:41:32.601Z,78.38
2016-12-09T01:42:00.746Z,78.67
2016-12-09T01:42:28.567Z,79.16
2016-12-09T01:42:56.398Z,79.16
2016-12-09T01:43:24.264Z,78.38
2016-12-09T01:43:52.161Z,79.25
2016-12-09T01:44:20.010Z,79.25
2016-12-09T01:44:47.844Z,79.06
2016-12-09T01:45:15.711Z,79.06
2016-12-09T01:45:43.882Z,78.58
2016-12-09T01:46:11.762Z,78.38
2016-12-09T01:46:39.574Z,79.16
2016-12-09T01:47:07.326Z,78.96
2016-12-09T01:47:35.140Z,78.96
2016-12-09T01:48:02.965Z,79.06
2016-12-09T01:48:30.792Z,78.67
2016-12-09T01:48:58.622Z,78.67
2016-12-09T01:49:26.495Z,78.77
2016-12-09T01:49:54.354Z,79.16
2016-12-09T01:50:22.214Z,79.25
2016-12-09T01:50:50.000Z,78.67
2016-12-09T01:51:18.163Z,79.74
2016-12-09T01:51:46.124Z,79.25
2016-12-09T01:52:13.968Z,79.64
2016-12-09T01:52:42.099Z,80.22
2016-12-09T01:53:09.876Z,79.83
2016-12-09T01:53:37.670Z,80.03
2016-12-09T01:54:05.794Z,80.22
2016-12-09T01:54:33.823Z,80.03
2016-12-09T01:55:01.731Z,80.12
2016-12-09T01:55:29.603Z,80.12
2016-12-09T01:55:58.031Z,80.22
2016-12-09T01:56:25.770Z,80.18
2016-12-09T01:56:53.601Z,80.28
2016-12-09T01:57:21.404Z,80.95
2016-12-09T01:57:49.220Z,80.86
2016-12-09T01:58:16.997Z,80.86
2016-12-09T01:58:44.732Z,80.86
2016-12-09T01:59:13.225Z,80.86
2016-12-09T01:59:41.102Z,80.86
2016-12-09T02:00:09.262Z,80.76
2016-12-09T02:00:37.016Z,81.15
2016-12-09T02:01:05.108Z,81.05
2016-12-09T02:01:33.138Z,81.15
2016-12-09T02:02:01.049Z,81.44
2016-12-09T02:02:28.902Z,81.34
2016-12-09T02:02:56.776Z,81.53
2016-12-09T02:03:24.576Z,81.44
2016-12-09T02:03:52.497Z,81.44
2016-12-09T02:04:20.967Z,81.73
2016-12-09T02:04:49.158Z,81.63
2016-12-09T02:05:17.261Z,81.53
2016-12-09T02:05:45.420Z,81.53
2016-12-09T02:06:13.444Z,81.44
2016-12-09T02:06:41.274Z,81.15
2016-12-09T02:07:09.451Z,81.15
2016-12-09T02:07:37.324Z,80.95
2016-12-09T02:08:05.134Z,81.05
2016-12-09T02:08:33.314Z,81.05
2016-12-09T02:09:01.102Z,81.73
2016-12-09T02:09:28.947Z,81.63
2016-12-09T02:09:56.783Z,81.44
2016-12-09T02:10:24.567Z,81.73
2016-12-09T02:10:52.685Z,81.53
2016-12-09T02:11:20.863Z,81.63
2016-12-09T02:11:49.261Z,81.53
2016-12-09T02:12:18.350Z,81.63
2016-12-09T02:12:46.243Z,81.82
2016-12-09T02:13:14.384Z,81.63
2016-12-09T02:13:42.281Z,81.92
2016-12-09T02:14:10.406Z,81.73
2016-12-09T02:14:38.545Z,81.73
2016-12-09T02:15:07.018Z,81.53
2016-12-09T02:15:35.202Z,81.82
2016-12-09T02:16:03.033Z,81.92
2016-12-09T02:16:30.860Z,81.34
2016-12-09T02:16:58.649Z,81.05
2016-12-09T02:17:26.536Z,81.53
2016-12-09T02:17:54.347Z,81.44
2016-12-09T02:18:22.546Z,81.44
2016-12-09T02:18:50.701Z,81.24
2016-12-09T02:19:18.813Z,81.34
2016-12-09T02:19:46.629Z,81.05
2016-12-09T02:20:14.763Z,81.05
2016-12-09T02:20:42.593Z,80.86
2016-12-09T02:21:11.052Z,81.44
2016-12-09T02:21:38.866Z,81.24
2016-12-09T02:22:06.817Z,80.95
2016-12-09T02:22:35.377Z,81.24
2016-12-09T02:23:03.419Z,81.44
2016-12-09T02:23:31.264Z,81.24
2016-12-09T02:23:59.123Z,81.34
2016-12-09T02:24:27.276Z,81.15
2016-12-09T02:24:55.180Z,81.24
2016-12-09T02:25:23.046Z,81.24
2016-12-09T02:25:51.247Z,81.15
2016-12-09T02:26:19.463Z,81.24
2016-12-09T02:26:47.589Z,81.63
2016-12-09T02:27:15.567Z,81.92
2016-12-09T02:27:43.362Z,82.11
2016-12-09T02:28:11.286Z,81.44
2016-12-09T02:28:39.247Z,81.73
2016-12-09T02:29:07.162Z,81.63
2016-12-09T02:29:35.360Z,82.02
2016-12-09T02:30:03.497Z,81.63
2016-12-09T02:30:31.398Z,81.73
2016-12-09T02:30:59.530Z,81.53
2016-12-09T02:31:27.354Z,81.82
2016-12-09T02:31:55.798Z,81.53
2016-12-09T02:32:23.765Z,82.4
2016-12-09T02:32:51.861Z,81.73
2016-12-09T02:33:19.659Z,81.92
2016-12-09T02:33:47.517Z,82.02
2016-12-09T02:34:15.267Z,81.73
2016-12-09T02:34:43.717Z,82.02
2016-12-09T02:35:11.654Z,82.02
2016-12-09T02:35:39.414Z,81.92
2016-12-09T02:36:07.234Z,81.92
2016-12-09T02:36:35.703Z,81.73
2016-12-09T02:37:03.681Z,81.63
2016-12-09T02:37:32.452Z,81.73
2016-12-09T02:38:00.932Z,81.82
2016-12-09T02:38:28.742Z,81.53
2016-12-09T02:38:56.529Z,81.73
2016-12-09T02:39:24.390Z,81.92
2016-12-09T02:39:52.580Z,81.73
2016-12-09T02:40:20.459Z,82.11
2016-12-09T02:40:48.310Z,82.4
2016-12-09T02:41:16.140Z,82.6
2016-12-09T02:41:43.961Z,82.31
2016-12-09T02:42:12.748Z,82.89
2016-12-09T02:42:40.561Z,82.69
2016-12-09T02:43:08.699Z,82.11
2016-12-09T02:43:36.544Z,82.6
2016-12-09T02:44:04.422Z,83.18
2016-12-09T02:44:32.359Z,83.08
2016-12-09T02:45:00.430Z,83.18
2016-12-09T02:45:28.584Z,83.18
2016-12-09T02:45:56.734Z,83.18
2016-12-09T02:46:24.501Z,82.5
2016-12-09T02:46:52.355Z,82.98
2016-12-09T02:47:20.679Z,82.5
2016-12-09T02:47:48.816Z,82.4
2016-12-09T02:48:16.971Z,82.21
2016-12-09T02:48:44.791Z,82.11
2016-12-09T02:49:12.686Z,82.94
2016-12-09T02:49:40.517Z,82.98
2016-12-09T02:50:08.704Z,82.89
2016-12-09T02:50:36.628Z,82.46
2016-12-09T02:51:05.272Z,82.56
2016-12-09T02:51:33.150Z,82.07
2016-12-09T02:52:01.025Z,81.78
2016-12-09T02:52:28.898Z,81.88
2016-12-09T02:52:57.356Z,81.88
2016-12-09T02:53:25.766Z,82.07
2016-12-09T02:53:53.563Z,82.07
2016-12-09T02:54:21.372Z,82.07
2016-12-09T02:54:49.258Z,81.88
2016-12-09T02:55:17.119Z,82.07
2016-12-09T02:55:45.237Z,82.26
2016-12-09T02:56:13.027Z,82.75
2016-12-09T02:56:40.777Z,82.56
2016-12-09T02:57:08.540Z,82.46
2016-12-09T02:57:36.392Z,82.07
2016-12-09T02:58:04.205Z,83.04
2016-12-09T02:58:32.072Z,82.94
2016-12-09T02:59:00.226Z,83.14
2016-12-09T02:59:28.402Z,83.04
2016-12-09T02:59:56.272Z,82.94
2016-12-09T03:00:24.153Z,83.14
2016-12-09T03:00:51.960Z,83.04
2016-12-09T03:01:19.705Z,83.33
2016-12-09T03:01:47.573Z,83.23
2016-12-09T03:02:16.022Z,83.42
2016-12-09T03:02:44.103Z,83.23
2016-12-09T03:03:11.910Z,83.42
2016-12-09T03:03:39.968Z,83.23
2016-12-09T03:04:08.119Z,83.23
2016-12-09T03:04:35.922Z,83.04
2016-12-09T03:05:04.386Z,83.33
2016-12-09T03:05:32.594Z,83.33
2016-12-09T03:06:00.717Z,83.42
2016-12-09T03:06:28.580Z,83.33
2016-12-09T03:06:56.367Z,83.91
2016-12-09T03:07:24.731Z,83.72
2016-12-09T03:07:52.921Z,83.91
2016-12-09T03:08:20.763Z,83.72
2016-12-09T03:08:48.605Z,84.39
2016-12-09T03:09:16.329Z,84.3
2016-12-09T03:09:44.451Z,84.78
2016-12-09T03:10:12.366Z,84
2016-12-09T03:10:40.536Z,84.1
2016-12-09T03:11:08.319Z,84.68
2016-12-09T03:11:36.118Z,84.48
2016-12-09T03:12:04.014Z,84.3
2016-12-09T03:12:31.827Z,84.58
2016-12-09T03:13:00.400Z,84.48
2016-12-09T03:13:28.257Z,84.68
2016-12-09T03:13:56.061Z,84.39
2016-12-09T03:14:23.990Z,84.2
2016-12-09T03:14:52.150Z,84.58
2016-12-09T03:15:19.979Z,84.58
2016-12-09T03:15:47.828Z,84.1
2016-12-09T03:16:15.753Z,85.06
2016-12-09T03:16:43.849Z,84.78
2016-12-09T03:17:12.026Z,84.48
2016-12-09T03:17:39.985Z,84.58
2016-12-09T03:18:07.832Z,84.58
2016-12-09T03:18:35.952Z,85.12
2016-12-09T03:19:04.189Z,85.26
2016-12-09T03:19:32.261Z,85.06
2016-12-09T03:20:00.697Z,85.06
2016-12-09T03:20:28.814Z,85.26
2016-12-09T03:20:56.667Z,84.97
2016-12-09T03:21:24.576Z,84.58
2016-12-09T03:21:52.381Z,84.97
2016-12-09T03:22:20.161Z,85.16
2016-12-09T03:22:48.011Z,84.93
2016-12-09T03:23:15.935Z,84.48
2016-12-09T03:23:43.696Z,84.83
2016-12-09T03:24:11.499Z,84.54
2016-12-09T03:24:39.609Z,84.06
2016-12-09T03:25:07.684Z,84.68
2016-12-09T03:25:35.793Z,84.58
2016-12-09T03:26:03.689Z,84.64
2016-12-09T03:26:31.878Z,84.58
2016-12-09T03:26:59.989Z,84.78
2016-12-09T03:27:28.498Z,84.58
2016-12-09T03:27:56.592Z,84.58
2016-12-09T03:28:24.736Z,84.06
2016-12-09T03:28:52.614Z,84.48
2016-12-09T03:29:20.448Z,84.58
2016-12-09T03:29:48.873Z,84.83
2016-12-09T03:30:17.326Z,84.97
2016-12-09T03:30:45.499Z,84.3
2016-12-09T03:31:13.674Z,84.48
2016-12-09T03:31:41.869Z,84.78
2016-12-09T03:32:10.310Z,84.74
2016-12-09T03:32:38.178Z,84.68
2016-12-09T03:33:06.353Z,85.06
2016-12-09T03:33:34.201Z,84.68
2016-12-09T03:34:02.054Z,84.1
2016-12-09T03:34:30.197Z,84.68
2016-12-09T03:34:58.040Z,84.68
2016-12-09T03:35:26.197Z,84.39
2016-12-09T03:35:53.961Z,84.58
2016-12-09T03:36:21.776Z,84.48
2016-12-09T03:36:50.190Z,84.97
2016-12-09T03:37:17.950Z,84.68
2016-12-09T03:37:46.223Z,84.78
2016-12-09T03:38:14.112Z,84.1
2016-12-09T03:38:42.338Z,85.06
2016-12-09T03:39:10.524Z,84.58
2016-12-09T03:39:38.393Z,84.68
2016-12-09T03:40:06.199Z,84.48
2016-12-09T03:40:34.313Z,84.68
2016-12-09T03:41:02.180Z,84.68
2016-12-09T03:41:30.066Z,84.39
2016-12-09T03:41:58.551Z,84.48
2016-12-09T03:42:26.601Z,84.3
2016-12-09T03:42:55.058Z,84.88
2016-12-09T03:43:22.924Z,84.39
2016-12-09T03:43:50.680Z,84.78
2016-12-09T03:44:18.480Z,84.58
2016-12-09T03:44:46.229Z,84.68
2016-12-09T03:45:14.075Z,84
2016-12-09T03:45:42.202Z,84.58
2016-12-09T03:46:10.026Z,84.88
2016-12-09T03:46:38.192Z,84.3
2016-12-09T03:47:06.413Z,84.48
2016-12-09T03:47:34.856Z,84.2
2016-12-09T03:48:02.860Z,84.1
2016-12-09T03:48:31.025Z,84.33
2016-12-09T03:48:58.780Z,84.58
2016-12-09T03:49:27.471Z,83.91
2016-12-09T03:49:56.177Z,84
2016-12-09T03:50:24.240Z,84.58
2016-12-09T03:50:52.037Z,84.58
2016-12-09T03:51:20.466Z,84.39
2016-12-09T03:51:48.238Z,84.68
2016-12-09T03:52:16.067Z,84
2016-12-09T03:52:44.193Z,84.68
2016-12-09T03:53:12.043Z,84.63
2016-12-09T03:53:40.172Z,84.43
2016-12-09T03:54:07.905Z,84.97
2016-12-09T03:54:35.657Z,84.63
2016-12-09T03:55:04.067Z,84.78
2016-12-09T03:55:32.134Z,84.97
2016-12-09T03:56:00.610Z,85.36
2016-12-09T03:56:28.386Z,84.78
2016-12-09T03:56:56.402Z,85.16
2016-12-09T03:57:24.164Z,85.74
2016-12-09T03:57:52.244Z,85.45
2016-12-09T03:58:19.895Z,86.03
2016-12-09T03:58:47.620Z,85.26
2016-12-09T03:59:16.259Z,86.42
2016-12-09T03:59:44.374Z,86.32
2016-12-09T04:00:12.493Z,86.32
2016-12-09T04:00:40.575Z,86.32
2016-12-09T04:01:09.019Z,86.22
2016-12-09T04:01:37.105Z,86.32
2016-12-09T04:02:04.823Z,86.61
2016-12-09T04:02:32.484Z,86.52
2016-12-09T04:03:00.421Z,86.61
2016-12-09T04:03:28.845Z,86.8
2016-12-09T04:03:56.603Z,86.8
2016-12-09T04:04:24.366Z,86.52
2016-12-09T04:04:52.102Z,87.04
2016-12-09T04:05:19.854Z,87
2016-12-09T04:05:47.635Z,87.19
2016-12-09T04:06:16.027Z,87.77
2016-12-09T04:06:44.107Z,87.19
2016-12-09T04:07:12.866Z,87.38
2016-12-09T04:07:40.897Z,87
2016-12-09T04:08:09.087Z,86.9
2016-12-09T04:08:37.521Z,86.8
2016-12-09T04:09:05.619Z,87
2016-12-09T04:09:34.718Z,87.52
2016-12-09T04:10:02.847Z,88.06
2016-12-09T04:10:30.666Z,87.38
2016-12-09T04:10:59.150Z,87.38
2016-12-09T04:11:27.636Z,87.48
2016-12-09T04:11:55.735Z,87.38
2016-12-09T04:12:24.584Z,87.48
2016-12-09T04:12:52.388Z,87.38
2016-12-09T04:13:20.183Z,87.38
2016-12-09T04:13:48.695Z,87.48
2016-12-09T04:14:16.835Z,87.96
2016-12-09T04:14:44.956Z,87.77
2016-12-09T04:15:13.613Z,87.67
2016-12-09T04:15:41.359Z,88.25
2016-12-09T04:16:09.753Z,87.38
2016-12-09T04:16:38.123Z,87.87
2016-12-09T04:17:06.225Z,87.87
2016-12-09T04:17:34.834Z,87.77
2016-12-09T04:18:03.004Z,87.96
2016-12-09T04:18:30.804Z,88.15
2016-12-09T04:18:58.874Z,88.06
2016-12-09T04:19:26.988Z,87.87
2016-12-09T04:19:54.786Z,88.35
2016-12-09T04:20:22.588Z,88.06
2016-12-09T04:20:50.642Z,88.06
2016-12-09T04:21:18.451Z,87.87
2016-12-09T04:21:46.560Z,87.96
2016-12-09T04:22:14.325Z,87.87
2016-12-09T04:22:42.767Z,88.83
2016-12-09T04:23:11.374Z,88.35
2016-12-09T04:23:39.807Z,87.87
2016-12-09T04:24:07.642Z,88.06
2016-12-09T04:24:35.754Z,88.64
2016-12-09T04:25:03.875Z,88.54
2016-12-09T04:25:32.266Z,88.06
2016-12-09T04:26:00.728Z,88.06
2016-12-09T04:26:28.804Z,87.67
2016-12-09T04:26:56.905Z,87.67
2016-12-09T04:27:24.932Z,87.48
2016-12-09T04:27:53.062Z,87.48
2016-12-09T04:28:20.987Z,87.77
2016-12-09T04:28:49.097Z,87.58
2016-12-09T04:29:17.180Z,87.38
2016-12-09T04:29:45.290Z,87.38
2016-12-09T04:30:13.981Z,87.33
2016-12-09T04:30:41.805Z,87.09
2016-12-09T04:31:09.892Z,87.23
2016-12-09T04:31:37.990Z,87.33
2016-12-09T04:32:06.461Z,87.23
2016-12-09T04:32:34.875Z,86.56
2016-12-09T04:33:02.963Z,87.04
2016-12-09T04:33:32.134Z,86.94
2016-12-09T04:34:00.376Z,86.75
2016-12-09T04:34:28.371Z,87.04
2016-12-09T04:34:56.446Z,86.94
2016-12-09T04:35:24.224Z,86.94
2016-12-09T04:35:53.584Z,86.85
2016-12-09T04:36:21.674Z,87.04
2016-12-09T04:36:49.457Z,86.85
2016-12-09T04:37:17.592Z,87.04
2016-12-09T04:37:45.322Z,86.56
2016-12-09T04:38:13.160Z,86.94
2016-12-09T04:38:41.477Z,86.36
2016-12-09T04:39:10.390Z,86.65
2016-12-09T04:39:38.168Z,86.27
2016-12-09T04:40:06.236Z,86.46
2016-12-09T04:40:34.334Z,86.46
2016-12-09T04:41:02.422Z,86.46
2016-12-09T04:41:30.772Z,86.36
2016-12-09T04:41:58.868Z,86.27
2016-12-09T04:42:26.581Z,85.98
2016-12-09T04:42:54.665Z,86.27
2016-12-09T04:43:22.768Z,86.07
2016-12-09T04:43:50.687Z,86.27
2016-12-09T04:44:18.773Z,85.88
2016-12-09T04:44:46.855Z,86.07
2016-12-09T04:45:14.613Z,85.88
2016-12-09T04:45:42.424Z,86.07
2016-12-09T04:46:10.206Z,85.98
2016-12-09T04:46:38.616Z,86.56
2016-12-09T04:47:06.978Z,86.17
2016-12-09T04:47:35.085Z,86.17
2016-12-09T04:48:03.107Z,86.56
2016-12-09T04:48:30.867Z,86.07
2016-12-09T04:48:58.669Z,86.46
2016-12-09T04:49:27.077Z,86.36
2016-12-09T04:49:55.482Z,85.98
2016-12-09T04:50:23.217Z,85.98
2016-12-09T04:50:51.357Z,85.88
2016-12-09T04:51:19.728Z,86.36
2016-12-09T04:51:47.544Z,86.07
2016-12-09T04:52:16.493Z,85.98
2016-12-09T04:52:44.284Z,86.17
2016-12-09T04:53:12.703Z,86.17
2016-12-09T04:53:40.441Z,85.98
2016-12-09T04:54:08.633Z,86.07
2016-12-09T04:54:37.028Z,86.17
2016-12-09T04:55:04.835Z,85.59
2016-12-09T04:55:32.634Z,85.59
2016-12-09T04:56:01.059Z,85.78
2016-12-09T04:56:29.424Z,85.59
2016-12-09T04:56:57.471Z,85.98
2016-12-09T04:57:26.286Z,85.59
2016-12-09T04:57:54.096Z,85.4
2016-12-09T04:58:22.201Z,85.69
2016-12-09T04:58:50.504Z,85.88
2016-12-09T04:59:19.209Z,85.21
2016-12-09T04:59:47.290Z,85.01
2016-12-09T05:00:16.060Z,85.78
2016-12-09T05:00:44.258Z,85.4
2016-12-09T05:01:12.106Z,85.11
2016-12-09T05:01:40.597Z,84.91
2016-12-09T05:02:09.014Z,85.01
2016-12-09T05:02:37.429Z,85.01
2016-12-09T05:03:05.218Z,85.21
2016-12-09T05:03:33.045Z,85.69
2016-12-09T05:04:00.963Z,85.88
2016-12-09T05:04:28.752Z,85.78
2016-12-09T05:04:56.588Z,85.4
2016-12-09T05:05:25.628Z,85.78
2016-12-09T05:05:54.091Z,85.78
2016-12-09T05:06:22.248Z,85.59
2016-12-09T05:06:50.015Z,85.98
2016-12-09T05:07:18.136Z,86.17
2016-12-09T05:07:46.281Z,85.98
2016-12-09T05:08:14.727Z,85.98
2016-12-09T05:08:42.876Z,86.07
2016-12-09T05:09:11.947Z,85.98
2016-12-09T05:09:39.757Z,86.27
2016-12-09T05:10:07.882Z,86.27
2016-12-09T05:10:36.001Z,86.17
2016-12-09T05:11:03.875Z,86.17
2016-12-09T05:11:32.012Z,85.98
2016-12-09T05:11:59.780Z,86.36
2016-12-09T05:12:28.473Z,86.36
2016-12-09T05:12:56.964Z,86.75
2016-12-09T05:13:25.110Z,86.75
2016-12-09T05:13:53.471Z,86.75
2016-12-09T05:14:22.181Z,87.23
2016-12-09T05:14:50.191Z,86.65
2016-12-09T05:15:18.603Z,87.43
2016-12-09T05:15:47.049Z,87.23
2016-12-09T05:16:15.087Z,87.04
2016-12-09T05:16:42.885Z,87.33
2016-12-09T05:17:10.940Z,87.43
2016-12-09T05:17:39.044Z,87.62
2016-12-09T05:18:07.612Z,87.33
2016-12-09T05:18:35.367Z,87.33
2016-12-09T05:19:04.114Z,87.91
2016-12-09T05:19:32.229Z,87.52
2016-12-09T05:20:01.262Z,87.52
2016-12-09T05:20:29.357Z,87.13
2016-12-09T05:20:57.420Z,87.52
2016-12-09T05:21:25.526Z,87.33
2016-12-09T05:21:53.330Z,87.52
2016-12-09T05:22:21.463Z,87.62
2016-12-09T05:22:50.296Z,87.43
2016-12-09T05:23:18.075Z,87.52
2016-12-09T05:23:46.512Z,87.62
2016-12-09T05:24:14.923Z,87.43
2016-12-09T05:24:43.300Z,87.62
2016-12-09T05:25:11.088Z,87.52
2016-12-09T05:25:39.149Z,86.56
2016-12-09T05:26:07.287Z,87.04
2016-12-09T05:26:34.957Z,86.65
2016-12-09T05:27:02.702Z,86.85
2016-12-09T05:27:30.468Z,86.56
2016-12-09T05:27:58.524Z,86.75
2016-12-09T05:28:26.510Z,86.52
2016-12-09T05:28:54.914Z,86.65
2016-12-09T05:29:22.957Z,86.71
2016-12-09T05:29:51.053Z,86.52
2016-12-09T05:30:31.809Z,86.36
2016-12-09T05:31:00.215Z,86.94
2016-12-09T05:31:28.019Z,86.52
2016-12-09T05:31:56.181Z,86.85
2016-12-09T05:32:24.689Z,86.71
2016-12-09T05:32:52.785Z,87.23
2016-12-09T05:33:21.275Z,86.85
2016-12-09T05:33:49.091Z,87.23
2016-12-09T05:34:17.031Z,86.94
2016-12-09T05:34:45.096Z,87
2016-12-09T05:35:12.852Z,86.8
2016-12-09T05:35:40.914Z,87.09
2016-12-09T05:36:08.600Z,87
2016-12-09T05:36:36.948Z,87.43
2016-12-09T05:37:04.999Z,87.29
2016-12-09T05:37:33.343Z,87.62
2016-12-09T05:38:01.413Z,87.38
2016-12-09T05:38:29.881Z,87.43
2016-12-09T05:38:58.297Z,87.81
2016-12-09T05:39:26.180Z,87.09
2016-12-09T05:39:54.313Z,87.29
2016-12-09T05:40:22.341Z,87.52
2016-12-09T05:40:50.377Z,87.19
2016-12-09T05:41:18.476Z,87.77
2016-12-09T05:41:46.851Z,87.52
2016-12-09T05:42:14.658Z,87.38
2016-12-09T05:42:43.092Z,88.1
2016-12-09T05:43:11.840Z,87.48
2016-12-09T05:43:39.685Z,87.62
2016-12-09T05:44:08.033Z,87.77
2016-12-09T05:44:36.177Z,87.58
2016-12-09T05:45:04.644Z,87.52
2016-12-09T05:45:33.033Z,87.87
2016-12-09T05:46:01.727Z,88.1
2016-12-09T05:46:29.838Z,87.96
2016-12-09T05:46:57.608Z,87.38
2016-12-09T05:47:25.768Z,87.38
2016-12-09T05:47:54.218Z,87.29
2016-12-09T05:48:22.859Z,87.62
2016-12-09T05:48:50.966Z,87.29
2016-12-09T05:49:18.996Z,87.48
2016-12-09T05:49:47.129Z,87.38
2016-12-09T05:50:15.292Z,87.48
2016-12-09T05:50:43.718Z,87.38
2016-12-09T05:51:11.975Z,87.38
2016-12-09T05:51:40.084Z,87.29
2016-12-09T05:52:07.983Z,87.29
2016-12-09T05:52:36.125Z,87.48
2016-12-09T05:53:04.219Z,87.19
2016-12-09T05:53:32.033Z,87.38
2016-12-09T05:54:43.102Z,86.9
2016-12-09T05:55:50.702Z,86.61
2016-12-09T05:56:19.600Z,87.29
2016-12-09T05:56:47.498Z,87.58
2016-12-09T05:57:16.764Z,87.29
2016-12-09T05:57:44.617Z,86.42
2016-12-09T05:58:12.416Z,86.9
2016-12-09T05:58:40.817Z,86.9
2016-12-09T05:59:08.857Z,87.29
2016-12-09T05:59:38.024Z,87.48
2016-12-09T06:00:06.057Z,87.67
2016-12-09T06:00:34.193Z,87.58
2016-12-09T06:01:02.661Z,87.48
2016-12-09T06:01:30.763Z,87.87
2016-12-09T06:01:58.534Z,87.96
2016-12-09T06:02:27.015Z,88.15
2016-12-09T06:02:55.426Z,88.06
2016-12-09T06:03:23.130Z,87.87
2016-12-09T06:03:51.847Z,87.87
2016-12-09T06:04:20.310Z,87.87